createdAt,value
2023-04-02T00:00:35.813Z,3.00
2023-04-02T00:01:39.817Z,2.97
2023-04-02T00:03:04.148Z,3.33
2023-04-02T00:04:14.866Z,3.07
2023-04-02T00:05:18.493Z,3.10
2023-04-02T00:06:40.643Z,3.20
2023-04-02T00:07:45.578Z,4.03
2023-04-02T00:08:49.103Z,3.20
2023-04-02T00:09:51.875Z,3.10
2023-04-02T00:11:02.133Z,3.20
2023-04-02T00:12:19.349Z,3.37
2023-04-02T00:13:32.133Z,3.27
2023-04-02T00:14:36.019Z,3.20
2023-04-02T00:15:43.138Z,2.83
2023-04-02T00:16:48.548Z,3.20
2023-04-02T00:17:50.985Z,3.00
2023-04-02T00:18:59.110Z,3.33
2023-04-02T00:20:07.957Z,3.17
2023-04-02T00:21:13.371Z,2.73
2023-04-02T00:22:21.723Z,3.07
2023-04-02T00:23:24.486Z,4.13
2023-04-02T00:24:26.816Z,3.10
2023-04-02T00:25:43.221Z,3.10
2023-04-02T00:26:50.905Z,3.30
2023-04-02T00:27:53.244Z,3.40
2023-04-02T00:28:55.547Z,3.50
2023-04-02T00:29:59.404Z,3.50
2023-04-02T00:31:02.043Z,3.37
2023-04-02T00:32:04.830Z,3.30
2023-04-02T00:33:15.917Z,3.30
2023-04-02T00:34:34.019Z,3.20
2023-04-02T00:35:40.448Z,3.40
2023-04-02T00:36:44.273Z,3.23
2023-04-02T00:37:46.723Z,3.40
2023-04-02T00:38:49.365Z,3.20
2023-04-02T00:39:58.323Z,3.33
2023-04-02T00:41:04.125Z,3.67
2023-04-02T00:42:06.601Z,3.67
2023-04-02T00:43:08.942Z,3.63
2023-04-02T00:44:13.530Z,3.73
2023-04-02T00:45:29.023Z,3.90
2023-04-02T00:46:47.484Z,3.60
2023-04-02T00:47:50.583Z,3.50
2023-04-02T00:49:22.632Z,3.77
2023-04-02T00:50:33.148Z,3.90
2023-04-02T00:51:51.738Z,3.93
2023-04-02T00:52:58.595Z,3.60
2023-04-02T00:54:04.743Z,4.10
2023-04-02T00:55:12.255Z,4.13
2023-04-02T00:56:39.557Z,4.70
2023-04-02T00:57:43.247Z,4.23
2023-04-02T00:58:51.207Z,3.97
2023-04-02T01:00:12.469Z,3.83
2023-04-02T01:01:28.082Z,4.03
2023-04-02T01:02:33.072Z,4.53
2023-04-02T01:03:37.127Z,4.50
2023-04-02T01:04:40.127Z,4.27
2023-04-02T01:05:50.416Z,4.33
2023-04-02T01:06:53.663Z,4.47
2023-04-02T01:08:10.253Z,6.83
2023-04-02T01:09:43.182Z,4.40
2023-04-02T01:11:09.888Z,4.00
2023-04-02T01:12:39.615Z,3.97
2023-04-02T01:14:06.657Z,3.80
2023-04-02T01:15:20.867Z,4.70
2023-04-02T01:16:33.331Z,4.07
2023-04-02T01:17:50.393Z,4.00
2023-04-02T01:19:08.891Z,4.13
2023-04-02T01:20:15.189Z,4.13
2023-04-02T01:21:54.472Z,4.23
2023-04-02T01:23:18.354Z,3.97
2023-04-02T01:24:21.927Z,4.23
2023-04-02T01:25:31.927Z,4.57
2023-04-02T01:26:50.166Z,4.13
2023-04-02T01:28:10.287Z,4.80
2023-04-02T01:29:16.684Z,4.10
2023-04-02T01:30:20.289Z,3.80
2023-04-02T01:31:23.332Z,4.13
2023-04-02T01:32:29.862Z,4.40
2023-04-02T01:33:35.645Z,3.97
2023-04-02T01:34:39.261Z,3.77
2023-04-02T01:35:49.910Z,3.73
2023-04-02T01:37:14.196Z,3.97
2023-04-02T01:38:27.553Z,4.10
2023-04-02T01:39:50.670Z,3.60
2023-04-02T01:41:07.881Z,3.73
2023-04-02T01:42:18.947Z,4.10
2023-04-02T01:43:31.160Z,3.87
2023-04-02T01:44:44.532Z,3.93
2023-04-02T01:45:46.797Z,4.20
2023-04-02T01:46:49.972Z,3.83
2023-04-02T01:47:52.664Z,3.83
2023-04-02T01:48:56.906Z,3.80
2023-04-02T01:50:32.139Z,3.97
2023-04-02T01:51:36.311Z,3.57
2023-04-02T01:52:43.635Z,3.67
2023-04-02T01:53:47.374Z,3.80
2023-04-02T01:54:51.704Z,3.43
2023-04-02T01:55:57.401Z,3.30
2023-04-02T01:56:59.645Z,3.00
2023-04-02T01:58:04.042Z,3.30
2023-04-02T01:59:11.466Z,3.37
2023-04-02T02:00:17.454Z,3.20
2023-04-02T02:01:27.290Z,2.60
2023-04-02T02:02:29.891Z,2.60
2023-04-02T02:03:32.817Z,2.80
2023-04-02T02:04:37.276Z,2.50
2023-04-02T02:05:41.942Z,2.27
2023-04-02T02:06:44.957Z,2.57
2023-04-02T02:07:47.553Z,2.63
2023-04-02T02:09:21.631Z,2.53
2023-04-02T02:10:28.203Z,2.57
2023-04-02T02:11:32.708Z,2.90
2023-04-02T02:12:34.933Z,2.43
2023-04-02T02:13:37.221Z,2.40
2023-04-02T02:14:39.865Z,2.53
2023-04-02T02:15:42.688Z,2.70
2023-04-02T02:16:47.179Z,2.50
2023-04-02T02:17:49.973Z,2.40
2023-04-02T02:18:55.251Z,2.30
2023-04-02T02:20:00.714Z,2.33
2023-04-02T02:21:07.611Z,2.73
2023-04-02T02:22:30.036Z,2.17
2023-04-02T02:23:32.933Z,2.50
2023-04-02T02:24:37.280Z,2.23
2023-04-02T02:25:40.451Z,2.00
2023-04-02T02:26:44.814Z,2.37
2023-04-02T02:27:53.988Z,2.33
2023-04-02T02:28:59.170Z,2.00
2023-04-02T02:30:21.353Z,2.33
2023-04-02T02:31:30.030Z,2.10
2023-04-02T02:32:38.329Z,2.03
2023-04-02T02:33:49.805Z,2.10
2023-04-02T02:35:07.462Z,1.90
2023-04-02T02:36:33.793Z,3.10
2023-04-02T02:37:43.459Z,1.97
2023-04-02T02:39:07.259Z,1.90
2023-04-02T02:40:24.014Z,2.20
2023-04-02T02:41:52.046Z,2.13
2023-04-02T02:43:02.801Z,2.10
2023-04-02T02:44:08.331Z,2.43
2023-04-02T02:45:18.442Z,2.13
2023-04-02T02:46:24.080Z,2.50
2023-04-02T02:47:33.400Z,2.00
2023-04-02T02:48:41.008Z,2.20
2023-04-02T02:49:47.753Z,2.20
2023-04-02T02:50:51.702Z,2.30
2023-04-02T02:52:04.058Z,2.10
2023-04-02T02:53:23.185Z,2.20
2023-04-02T02:54:29.226Z,2.00
2023-04-02T02:55:38.047Z,2.30
2023-04-02T02:57:02.940Z,3.07
2023-04-02T02:58:09.920Z,2.10
2023-04-02T02:59:22.734Z,2.00
2023-04-02T03:00:26.477Z,2.30
2023-04-02T03:01:31.316Z,2.20
2023-04-02T03:02:40.272Z,2.20
2023-04-02T03:03:47.727Z,2.17
2023-04-02T03:04:53.745Z,2.40
2023-04-02T03:06:02.379Z,1.97
2023-04-02T03:07:09.207Z,2.37
2023-04-02T03:08:29.808Z,2.30
2023-04-02T03:09:39.638Z,2.33
2023-04-02T03:11:06.530Z,2.27
2023-04-02T03:12:39.923Z,2.97
2023-04-02T03:13:47.516Z,2.60
2023-04-02T03:15:12.660Z,1.80
2023-04-02T03:16:21.579Z,2.20
2023-04-02T03:17:38.740Z,2.20
2023-04-02T03:18:52.945Z,2.20
2023-04-02T03:20:01.934Z,2.23
2023-04-02T03:21:14.790Z,2.57
2023-04-02T03:22:30.058Z,2.30
2023-04-02T03:23:40.823Z,2.30
2023-04-02T03:25:12.053Z,2.13
2023-04-02T03:26:20.264Z,2.00
2023-04-02T03:27:29.424Z,1.93
2023-04-02T03:28:38.754Z,2.30
2023-04-02T03:29:52.148Z,2.20
2023-04-02T03:31:06.129Z,1.90
2023-04-02T03:32:23.533Z,2.30
2023-04-02T03:33:36.141Z,2.37
2023-04-02T03:34:46.899Z,2.10
2023-04-02T03:36:16.366Z,2.10
2023-04-02T03:37:27.234Z,2.17
2023-04-02T03:38:41.330Z,2.00
2023-04-02T03:40:09.086Z,1.90
2023-04-02T03:41:18.640Z,3.67
2023-04-02T03:42:26.317Z,2.47
2023-04-02T03:43:40.229Z,1.70
2023-04-02T03:44:55.528Z,2.20
2023-04-02T03:46:09.538Z,2.43
2023-04-02T03:47:18.890Z,2.00
2023-04-02T03:48:31.577Z,1.90
2023-04-02T03:49:39.628Z,2.73
2023-04-02T03:50:51.456Z,1.97
2023-04-02T03:52:00.292Z,2.00
2023-04-02T03:53:04.701Z,2.00
2023-04-02T03:54:15.372Z,1.93
2023-04-02T03:55:19.604Z,2.23
2023-04-02T03:56:43.987Z,2.13
2023-04-02T03:58:05.256Z,2.23
2023-04-02T03:59:32.197Z,2.20
2023-04-02T04:00:41.590Z,2.50
2023-04-02T04:02:07.137Z,2.50
2023-04-02T04:03:17.064Z,3.23
2023-04-02T04:04:20.901Z,3.30
2023-04-02T04:05:34.960Z,2.90
2023-04-02T04:06:43.614Z,2.93
2023-04-02T04:07:46.340Z,3.63
2023-04-02T04:08:54.894Z,3.50
2023-04-02T04:09:59.753Z,3.27
2023-04-02T04:11:07.534Z,3.17
2023-04-02T04:12:18.520Z,4.10
2023-04-02T04:13:30.160Z,3.10
2023-04-02T04:14:35.047Z,3.40
2023-04-02T04:15:49.504Z,4.73
2023-04-02T04:17:04.922Z,3.50
2023-04-02T04:18:21.717Z,4.17
2023-04-02T04:19:32.811Z,4.17
2023-04-02T04:20:46.172Z,3.70
2023-04-02T04:21:58.154Z,3.47
2023-04-02T04:23:26.026Z,3.70
2023-04-02T04:24:29.093Z,3.80
2023-04-02T04:25:37.368Z,3.80
2023-04-02T04:26:53.664Z,3.90
2023-04-02T04:28:22.338Z,3.37
2023-04-02T04:29:40.883Z,3.37
2023-04-02T04:30:51.419Z,3.73
2023-04-02T04:31:56.578Z,3.20
2023-04-02T04:33:12.748Z,3.10
2023-04-02T04:34:42.603Z,3.10
2023-04-02T04:35:51.714Z,3.10
2023-04-02T04:37:01.852Z,3.60
2023-04-02T04:38:12.306Z,2.90
2023-04-02T04:39:24.143Z,3.63
2023-04-02T04:40:30.505Z,3.07
2023-04-02T04:41:38.369Z,3.20
2023-04-02T04:42:44.150Z,3.30
2023-04-02T04:44:07.034Z,3.43
2023-04-02T04:45:21.929Z,3.67
2023-04-02T04:46:38.920Z,3.43
2023-04-02T04:47:50.060Z,2.83
2023-04-02T04:49:14.382Z,4.47
2023-04-02T04:50:35.430Z,3.80
2023-04-02T04:51:45.706Z,3.60
2023-04-02T04:52:49.018Z,3.87
2023-04-02T04:53:55.256Z,3.90
2023-04-02T04:55:01.532Z,3.47
2023-04-02T04:56:16.481Z,3.77
2023-04-02T04:57:38.155Z,3.43
2023-04-02T04:59:02.717Z,4.60
2023-04-02T05:00:22.270Z,3.83
2023-04-02T05:01:34.280Z,4.77
2023-04-02T05:02:45.595Z,3.40
2023-04-02T05:04:14.840Z,3.70
2023-04-02T05:05:23.863Z,4.23
2023-04-02T05:06:34.636Z,3.67
2023-04-02T05:07:50.001Z,3.80
2023-04-02T05:09:01.690Z,4.13
2023-04-02T05:10:13.342Z,3.67
2023-04-02T05:11:28.536Z,4.07
2023-04-02T05:12:56.613Z,3.37
2023-04-02T05:14:04.741Z,4.10
2023-04-02T05:15:12.997Z,4.23
2023-04-02T05:16:28.833Z,4.07
2023-04-02T05:17:42.822Z,4.53
2023-04-02T05:18:54.051Z,4.67
2023-04-02T05:20:09.934Z,4.40
2023-04-02T05:21:26.578Z,3.80
2023-04-02T05:22:50.694Z,3.67
2023-04-02T05:24:05.144Z,4.87
2023-04-02T05:25:19.091Z,5.00
2023-04-02T05:26:32.353Z,4.77
2023-04-02T05:27:53.048Z,3.87
2023-04-02T05:29:12.014Z,4.33
2023-04-02T05:30:23.224Z,3.40
2023-04-02T05:31:40.580Z,4.37
2023-04-02T05:33:08.087Z,4.43
2023-04-02T05:34:12.639Z,4.83
2023-04-02T05:35:21.051Z,3.87
2023-04-02T05:36:26.633Z,5.10
2023-04-02T05:37:32.154Z,4.13
2023-04-02T05:38:38.956Z,4.97
2023-04-02T05:39:44.771Z,4.23
2023-04-02T05:40:51.118Z,4.70
2023-04-02T05:42:08.530Z,4.27
2023-04-02T05:43:28.186Z,5.23
2023-04-02T05:44:34.153Z,5.50
2023-04-02T05:45:39.941Z,6.00
2023-04-02T05:46:49.935Z,4.33
2023-04-02T05:48:03.234Z,4.63
2023-04-02T05:49:20.746Z,5.13
2023-04-02T05:50:37.523Z,4.30
2023-04-02T05:51:46.212Z,5.37
2023-04-02T05:52:57.084Z,4.17
2023-04-02T05:54:03.332Z,4.03
2023-04-02T05:55:29.493Z,3.97
2023-04-02T05:56:41.445Z,3.77
2023-04-02T05:57:58.987Z,5.10
2023-04-02T05:59:31.199Z,3.97
2023-04-02T06:00:36.697Z,4.00
2023-04-02T06:02:31.774Z,3.60
2023-04-02T06:03:53.635Z,3.23
2023-04-02T06:05:12.825Z,3.57
2023-04-02T06:06:42.816Z,3.70
2023-04-02T06:07:47.110Z,3.73
2023-04-02T06:08:58.080Z,3.83
2023-04-02T06:10:01.597Z,3.87
2023-04-02T06:11:17.624Z,3.23
2023-04-02T06:12:43.362Z,3.10
2023-04-02T06:13:46.835Z,4.00
2023-04-02T06:14:49.629Z,4.77
2023-04-02T06:15:52.270Z,4.47
2023-04-02T06:17:00.025Z,3.53
2023-04-02T06:18:05.122Z,4.07
2023-04-02T06:19:17.315Z,3.20
2023-04-02T06:20:21.423Z,3.27
2023-04-02T06:21:23.730Z,3.73
2023-04-02T06:22:35.833Z,4.63
2023-04-02T06:23:44.210Z,3.83
2023-04-02T06:24:49.484Z,3.90
2023-04-02T06:26:04.267Z,4.23
2023-04-02T06:27:10.559Z,3.80
2023-04-02T06:28:18.093Z,3.57
2023-04-02T06:29:42.456Z,4.03
2023-04-02T06:30:53.495Z,5.20
2023-04-02T06:32:00.521Z,3.13
2023-04-02T06:33:04.284Z,3.40
2023-04-02T06:34:15.441Z,5.37
2023-04-02T06:35:23.662Z,3.23
2023-04-02T06:36:40.987Z,3.47
2023-04-02T06:37:48.533Z,3.87
2023-04-02T06:39:08.341Z,4.23
2023-04-02T06:40:38.856Z,4.33
2023-04-02T06:41:45.972Z,4.47
2023-04-02T06:43:11.409Z,4.10
2023-04-02T06:44:38.730Z,3.57
2023-04-02T06:46:19.062Z,3.40
2023-04-02T06:47:47.332Z,3.93
2023-04-02T06:49:03.707Z,4.50
2023-04-02T06:50:17.072Z,3.47
2023-04-02T06:51:22.915Z,3.37
2023-04-02T06:52:29.573Z,3.90
2023-04-02T06:53:38.103Z,5.10
2023-04-02T06:54:41.357Z,4.47
2023-04-02T06:55:54.523Z,4.33
2023-04-02T06:57:01.523Z,3.53
2023-04-02T06:58:10.859Z,5.03
2023-04-02T06:59:15.962Z,3.83
2023-04-02T07:00:41.587Z,4.57
2023-04-02T07:01:52.380Z,4.27
2023-04-02T07:02:56.642Z,3.80
2023-04-02T07:03:59.831Z,4.53
2023-04-02T07:05:13.526Z,4.17
2023-04-02T07:06:22.328Z,4.30
2023-04-02T07:07:27.444Z,3.07
2023-04-02T07:08:30.002Z,3.80
2023-04-02T07:09:33.086Z,4.37
2023-04-02T07:10:37.837Z,3.83
2023-04-02T07:11:40.353Z,3.30
2023-04-02T07:12:43.639Z,4.53
2023-04-02T07:13:46.510Z,4.63
2023-04-02T07:14:48.842Z,4.83
2023-04-02T07:15:54.328Z,3.97
2023-04-02T07:16:57.333Z,3.70
2023-04-02T07:18:00.117Z,4.10
2023-04-02T07:19:04.390Z,3.90
2023-04-02T07:20:26.833Z,4.07
2023-04-02T07:21:30.189Z,3.47
2023-04-02T07:22:34.013Z,4.77
2023-04-02T07:23:38.082Z,3.03
2023-04-02T07:24:40.406Z,2.87
2023-04-02T07:25:42.709Z,3.50
2023-04-02T07:26:45.728Z,3.00
2023-04-02T07:27:48.231Z,3.13
2023-04-02T07:28:50.637Z,4.07
2023-04-02T07:29:52.873Z,2.77
2023-04-02T07:30:56.598Z,3.67
2023-04-02T07:31:58.831Z,3.90
2023-04-02T07:33:02.040Z,3.17
2023-04-02T07:34:05.705Z,3.07
2023-04-02T07:35:08.955Z,3.53
2023-04-02T07:36:20.598Z,3.97
2023-04-02T07:37:22.850Z,3.47
2023-04-02T07:38:25.989Z,4.53
2023-04-02T07:39:28.603Z,3.27
2023-04-02T07:40:32.321Z,4.37
2023-04-02T07:41:34.596Z,3.27
2023-04-02T07:42:37.058Z,3.33
2023-04-02T07:43:40.103Z,2.93
2023-04-02T07:44:42.371Z,3.73
2023-04-02T07:45:44.908Z,3.43
2023-04-02T07:46:47.193Z,4.10
2023-04-02T07:47:49.515Z,4.30
2023-04-02T07:48:51.753Z,3.30
2023-04-02T07:49:54.799Z,3.47
2023-04-02T07:50:57.102Z,3.10
2023-04-02T07:51:59.331Z,3.53
2023-04-02T07:53:04.231Z,4.20
2023-04-02T07:54:10.305Z,4.07
2023-04-02T07:55:14.871Z,3.87
2023-04-02T07:56:19.757Z,3.00
2023-04-02T07:57:22.147Z,2.70
2023-04-02T07:58:24.471Z,2.87
2023-04-02T07:59:26.694Z,3.67
2023-04-02T08:00:29.198Z,5.43
2023-04-02T08:01:35.701Z,3.23
2023-04-02T08:02:38.141Z,3.20
2023-04-02T08:03:40.485Z,4.23
2023-04-02T08:04:42.752Z,2.97
2023-04-02T08:05:53.998Z,3.10
2023-04-02T08:06:56.311Z,4.40
2023-04-02T08:07:58.568Z,3.97
2023-04-02T08:09:01.206Z,3.20
2023-04-02T08:10:04.649Z,3.40
2023-04-02T08:11:07.296Z,3.10
2023-04-02T08:12:13.576Z,4.10
2023-04-02T08:13:17.578Z,3.60
2023-04-02T08:14:19.981Z,2.87
2023-04-02T08:15:22.303Z,3.27
2023-04-02T08:16:25.549Z,3.63
2023-04-02T08:17:31.612Z,2.70
2023-04-02T08:18:34.611Z,3.53
2023-04-02T08:19:51.740Z,3.47
2023-04-02T08:20:57.585Z,3.67
2023-04-02T08:21:59.834Z,3.90
2023-04-02T08:23:02.098Z,2.73
2023-04-02T08:24:04.505Z,3.10
2023-04-02T08:25:07.339Z,2.50
2023-04-02T08:26:09.677Z,2.90
2023-04-02T08:27:15.005Z,2.87
2023-04-02T08:28:17.750Z,2.43
2023-04-02T08:29:20.772Z,3.23
2023-04-02T08:30:26.018Z,3.10
2023-04-02T08:31:28.388Z,2.40
2023-04-02T08:32:30.714Z,4.10
2023-04-02T08:33:33.035Z,2.93
2023-04-02T08:34:35.283Z,2.50
2023-04-02T08:35:37.819Z,3.13
2023-04-02T08:36:43.905Z,2.73
2023-04-02T08:37:46.319Z,2.70
2023-04-02T08:38:51.394Z,3.17
2023-04-02T08:39:54.110Z,2.20
2023-04-02T08:41:01.549Z,2.40
2023-04-02T08:42:15.019Z,2.30
2023-04-02T08:43:52.730Z,2.03
2023-04-02T08:45:24.246Z,2.23
2023-04-02T08:46:37.979Z,2.73
2023-04-02T08:47:44.474Z,1.83
2023-04-02T08:48:53.117Z,2.03
2023-04-02T08:50:02.474Z,2.10
2023-04-02T08:51:10.998Z,3.10
2023-04-02T08:52:23.548Z,2.13
2023-04-02T08:53:31.430Z,2.10
2023-04-02T08:54:43.850Z,3.10
2023-04-02T08:56:00.152Z,2.27
2023-04-02T08:57:12.835Z,1.90
2023-04-02T08:58:30.884Z,2.30
2023-04-02T08:59:36.130Z,3.47
2023-04-02T09:00:42.045Z,2.00
2023-04-02T09:01:54.756Z,2.33
2023-04-02T09:03:11.287Z,2.27
2023-04-02T09:04:16.481Z,2.40
2023-04-02T09:05:28.436Z,2.53
2023-04-02T09:06:30.767Z,2.30
2023-04-02T09:07:33.814Z,2.50
2023-04-02T09:08:36.644Z,2.97
2023-04-02T09:09:39.103Z,2.60
2023-04-02T09:11:05.485Z,2.20
2023-04-02T09:12:17.941Z,2.97
2023-04-02T09:13:25.179Z,2.40
2023-04-02T09:14:56.732Z,2.40
2023-04-02T09:16:08.500Z,2.17
2023-04-02T09:17:19.376Z,2.83
2023-04-02T09:18:21.790Z,2.43
2023-04-02T09:19:37.113Z,2.30
2023-04-02T09:20:40.123Z,2.40
2023-04-02T09:21:48.828Z,2.63
2023-04-02T09:22:53.365Z,2.83
2023-04-02T09:23:56.135Z,2.63
2023-04-02T09:25:01.155Z,3.23
2023-04-02T09:26:22.319Z,3.17
2023-04-02T09:27:28.081Z,2.77
2023-04-02T09:28:30.308Z,2.40
2023-04-02T09:30:21.559Z,2.70
2023-04-02T09:31:31.941Z,2.60
2023-04-02T09:32:49.151Z,2.70
2023-04-02T09:33:53.391Z,2.87
2023-04-02T09:35:24.514Z,2.73
2023-04-02T09:36:40.668Z,3.07
2023-04-02T09:37:44.004Z,2.50
2023-04-02T09:39:01.788Z,2.77
2023-04-02T09:40:33.863Z,4.40
2023-04-02T09:41:37.283Z,2.93
2023-04-02T09:42:39.650Z,2.80
2023-04-02T09:43:41.974Z,2.60
2023-04-02T09:44:44.219Z,3.47
2023-04-02T09:45:57.524Z,2.70
2023-04-02T09:47:06.548Z,2.73
2023-04-02T09:48:26.225Z,2.63
2023-04-02T09:49:34.498Z,3.03
2023-04-02T09:50:37.016Z,2.70
2023-04-02T09:51:39.236Z,2.57
2023-04-02T09:52:43.709Z,3.27
2023-04-02T09:54:07.671Z,2.80
2023-04-02T09:55:15.742Z,2.50
2023-04-02T09:56:23.745Z,2.90
2023-04-02T09:57:28.234Z,2.50
2023-04-02T09:58:30.570Z,3.73
2023-04-02T09:59:32.822Z,3.10
2023-04-02T10:00:35.721Z,3.07
2023-04-02T10:01:56.091Z,3.43
2023-04-02T10:03:19.624Z,3.10
2023-04-02T10:04:39.453Z,2.80
2023-04-02T10:05:43.811Z,2.83
2023-04-02T10:06:50.481Z,2.70
2023-04-02T10:07:54.877Z,2.60
2023-04-02T10:08:57.238Z,2.40
2023-04-02T10:10:01.943Z,2.37
2023-04-02T10:11:36.627Z,3.53
2023-04-02T10:12:59.228Z,3.67
2023-04-02T10:14:11.152Z,2.60
2023-04-02T10:15:21.680Z,4.87
2023-04-02T10:16:46.857Z,2.73
2023-04-02T10:18:03.778Z,2.87
2023-04-02T10:19:28.481Z,2.40
2023-04-02T10:20:48.601Z,2.50
2023-04-02T10:21:55.830Z,4.90
2023-04-02T10:22:58.079Z,2.67
2023-04-02T10:24:00.458Z,2.53
2023-04-02T10:25:02.832Z,3.03
2023-04-02T10:26:17.431Z,3.90
2023-04-02T10:27:34.036Z,4.30
2023-04-02T10:28:55.813Z,3.90
2023-04-02T10:30:16.281Z,2.70
2023-04-02T10:31:26.660Z,2.47
2023-04-02T10:32:34.539Z,3.03
2023-04-02T10:33:38.640Z,3.43
2023-04-02T10:34:46.796Z,3.23
2023-04-02T10:36:05.879Z,2.77
2023-04-02T10:37:32.356Z,3.00
2023-04-02T10:38:45.131Z,2.40
2023-04-02T10:40:00.178Z,2.73
2023-04-02T10:41:16.752Z,2.53
2023-04-02T10:42:45.099Z,2.70
2023-04-02T10:44:12.659Z,3.20
2023-04-02T10:45:52.946Z,3.73
2023-04-02T10:47:12.468Z,3.07
2023-04-02T10:48:34.827Z,2.87
2023-04-02T10:49:51.613Z,2.63
2023-04-02T10:51:07.630Z,3.57
2023-04-02T10:52:13.863Z,4.33
2023-04-02T10:53:21.701Z,3.03
2023-04-02T10:54:34.011Z,2.77
2023-04-02T10:55:43.474Z,2.90
2023-04-02T10:56:50.958Z,2.90
2023-04-02T10:57:57.232Z,3.33
2023-04-02T10:59:06.404Z,3.17
2023-04-02T11:00:11.731Z,3.93
2023-04-02T11:01:25.775Z,2.80
2023-04-02T11:02:35.087Z,3.40
2023-04-02T11:03:44.873Z,4.27
2023-04-02T11:04:47.860Z,3.70
2023-04-02T11:05:52.212Z,3.10
2023-04-02T11:07:13.135Z,2.93
2023-04-02T11:08:28.392Z,3.47
2023-04-02T11:09:36.684Z,3.17
2023-04-02T11:10:44.782Z,3.10
2023-04-02T11:11:52.666Z,3.10
2023-04-02T11:13:05.971Z,3.67
2023-04-02T11:14:17.471Z,3.10
2023-04-02T11:15:20.998Z,3.33
2023-04-02T11:16:24.233Z,3.53
2023-04-02T11:17:29.058Z,3.67
2023-04-02T11:18:37.768Z,3.97
2023-04-02T11:19:39.992Z,3.50
2023-04-02T11:20:51.145Z,4.47
2023-04-02T11:22:14.070Z,2.80
2023-04-02T11:23:20.585Z,3.30
2023-04-02T11:24:46.030Z,4.40
2023-04-02T11:25:48.864Z,3.57
2023-04-02T11:26:53.883Z,3.50
2023-04-02T11:28:27.507Z,5.10
2023-04-02T11:29:31.389Z,5.00
2023-04-02T11:30:34.785Z,4.73
2023-04-02T11:31:37.727Z,4.27
2023-04-02T11:32:43.180Z,3.80
2023-04-02T11:33:47.295Z,3.93
2023-04-02T11:35:03.413Z,3.07
2023-04-02T11:36:47.014Z,3.57
2023-04-02T11:37:49.318Z,3.67
2023-04-02T11:39:04.502Z,5.53
2023-04-02T11:40:14.199Z,3.30
2023-04-02T11:42:09.135Z,2.90
2023-04-02T11:43:33.436Z,7.13
2023-04-02T11:44:36.631Z,3.03
2023-04-02T11:45:52.949Z,2.70
2023-04-02T11:47:14.941Z,3.37
2023-04-02T11:48:17.100Z,2.67
2023-04-02T11:49:40.370Z,3.37
2023-04-02T11:50:46.511Z,2.73
2023-04-02T11:51:54.392Z,3.33
2023-04-02T11:53:10.729Z,3.37
2023-04-02T11:54:26.539Z,3.10
2023-04-02T11:55:37.282Z,3.53
2023-04-02T11:57:01.107Z,2.43
2023-04-02T11:58:25.550Z,3.00
2023-04-02T11:59:54.026Z,3.10
2023-04-02T12:01:33.220Z,3.13
2023-04-02T12:02:56.398Z,2.90
2023-04-02T12:04:36.337Z,3.63
2023-04-02T12:06:09.321Z,2.60
2023-04-02T12:07:36.586Z,2.83
2023-04-02T12:09:05.725Z,4.10
2023-04-02T12:10:27.906Z,3.83
2023-04-02T12:11:33.693Z,2.73
2023-04-02T12:12:39.044Z,3.07
2023-04-02T12:13:41.388Z,2.50
2023-04-02T12:14:52.845Z,3.50
2023-04-02T12:15:58.271Z,3.17
2023-04-02T12:17:01.059Z,3.67
2023-04-02T12:18:23.230Z,3.50
2023-04-02T12:19:26.735Z,3.90
2023-04-02T12:20:30.821Z,3.30
2023-04-02T12:21:33.081Z,3.57
2023-04-02T12:22:39.726Z,4.90
2023-04-02T12:23:47.880Z,3.93
2023-04-02T12:24:52.726Z,2.87
2023-04-02T12:26:08.668Z,3.47
2023-04-02T12:27:18.559Z,3.43
2023-04-02T12:28:22.570Z,3.37
2023-04-02T12:29:29.173Z,2.77
2023-04-02T12:30:31.782Z,2.30
2023-04-02T12:31:34.174Z,2.70
2023-04-02T12:32:36.665Z,2.80
2023-04-02T12:33:42.862Z,3.13
2023-04-02T12:34:46.715Z,2.90
2023-04-02T12:35:57.736Z,4.03
2023-04-02T12:37:05.596Z,2.37
2023-04-02T12:38:24.460Z,2.77
2023-04-02T12:39:28.452Z,3.67
2023-04-02T12:40:31.091Z,2.53
2023-04-02T12:41:36.913Z,2.50
2023-04-02T12:42:39.166Z,3.23
2023-04-02T12:43:42.652Z,2.33
2023-04-02T12:44:49.614Z,3.43
2023-04-02T12:45:54.633Z,3.10
2023-04-02T12:46:58.446Z,3.00
2023-04-02T12:48:06.719Z,2.50
2023-04-02T12:49:36.687Z,3.90
2023-04-02T12:50:41.960Z,3.20
2023-04-02T12:51:48.274Z,2.23
2023-04-02T12:52:53.506Z,1.83
2023-04-02T12:53:59.170Z,2.00
2023-04-02T12:55:06.351Z,2.30
2023-04-02T12:56:19.472Z,3.50
2023-04-02T12:57:27.729Z,1.90
2023-04-02T12:58:37.465Z,2.73
2023-04-02T12:59:40.930Z,2.23
2023-04-02T13:00:43.253Z,2.63
2023-04-02T13:01:58.374Z,2.77
2023-04-02T13:03:09.440Z,1.50
2023-04-02T13:04:15.248Z,2.13
2023-04-02T13:05:37.893Z,2.60
2023-04-02T13:06:47.362Z,2.53
2023-04-02T13:07:49.723Z,2.60
2023-04-02T13:08:58.254Z,2.33
2023-04-02T13:10:25.336Z,5.10
2023-04-02T13:11:39.478Z,2.73
2023-04-02T13:12:42.042Z,1.93
2023-04-02T13:13:46.495Z,3.27
2023-04-02T13:14:55.065Z,2.77
2023-04-02T13:16:15.536Z,2.57
2023-04-02T13:17:54.322Z,1.63
2023-04-02T13:19:23.449Z,3.07
2023-04-02T13:20:37.896Z,3.33
2023-04-02T13:21:40.562Z,2.23
2023-04-02T13:22:42.907Z,2.87
2023-04-02T13:23:46.224Z,3.17
2023-04-02T13:24:48.516Z,4.87
2023-04-02T13:25:51.540Z,2.43
2023-04-02T13:26:56.572Z,2.00
2023-04-02T13:28:02.101Z,1.77
2023-04-02T13:29:17.183Z,2.47
2023-04-02T13:30:23.257Z,3.87
2023-04-02T13:31:26.115Z,2.93
2023-04-02T13:32:28.578Z,3.47
2023-04-02T13:33:30.905Z,1.83
2023-04-02T13:34:33.514Z,2.50
2023-04-02T13:35:35.896Z,2.07
2023-04-02T13:36:38.399Z,2.73
2023-04-02T13:37:40.933Z,2.70
2023-04-02T13:38:43.243Z,2.70
2023-04-02T13:39:45.645Z,1.53
2023-04-02T13:40:47.986Z,2.43
2023-04-02T13:41:55.999Z,1.37
2023-04-02T13:43:00.169Z,2.17
2023-04-02T13:44:03.585Z,2.47
2023-04-02T13:45:18.891Z,2.07
2023-04-02T13:46:23.876Z,3.03
2023-04-02T13:47:26.312Z,2.80
2023-04-02T13:48:28.931Z,2.00
2023-04-02T13:49:31.840Z,2.60
2023-04-02T13:50:35.392Z,2.23
2023-04-02T13:51:46.922Z,2.43
2023-04-02T13:52:51.320Z,3.07
2023-04-02T13:53:57.648Z,2.00
2023-04-02T13:55:01.418Z,2.80
2023-04-02T13:56:08.616Z,1.50
2023-04-02T13:57:11.058Z,2.53
2023-04-02T13:58:13.449Z,2.17
2023-04-02T13:59:16.541Z,1.40
2023-04-02T14:00:20.061Z,2.33
2023-04-02T14:01:25.038Z,1.77
2023-04-02T14:02:27.953Z,1.33
2023-04-02T14:03:30.442Z,1.70
2023-04-02T14:04:38.422Z,1.83
2023-04-02T14:06:03.386Z,2.73
2023-04-02T14:07:26.632Z,2.03
2023-04-02T14:08:28.895Z,2.13
2023-04-02T14:09:48.153Z,3.60
2023-04-02T14:11:09.059Z,2.23
2023-04-02T14:12:33.739Z,2.00
2023-04-02T14:14:00.255Z,2.37
2023-04-02T14:15:20.090Z,1.73
2023-04-02T14:16:57.242Z,2.93
2023-04-02T14:18:17.958Z,1.77
2023-04-02T14:19:38.556Z,2.00
2023-04-02T14:20:51.704Z,2.27
2023-04-02T14:22:08.373Z,1.87
2023-04-02T14:23:36.633Z,2.33
2023-04-02T14:24:56.677Z,2.23
2023-04-02T14:26:22.830Z,1.60
2023-04-02T14:27:33.239Z,1.73
2023-04-02T14:29:13.508Z,2.17
2023-04-02T14:30:48.378Z,1.83
2023-04-02T14:32:00.026Z,4.00
2023-04-02T14:33:23.764Z,2.13
2023-04-02T14:34:53.058Z,2.20
2023-04-02T14:36:12.130Z,3.73
2023-04-02T14:37:41.993Z,2.33
2023-04-02T14:38:56.410Z,3.00
2023-04-02T14:40:27.259Z,3.07
2023-04-02T14:41:58.035Z,2.60
2023-04-02T14:43:11.605Z,2.60
2023-04-02T14:44:15.562Z,2.47
2023-04-02T14:45:42.312Z,2.13
2023-04-02T14:46:44.668Z,2.20
2023-04-02T14:47:54.648Z,3.73
2023-04-02T14:49:05.329Z,2.67
2023-04-02T14:50:13.897Z,2.43
2023-04-02T14:51:25.062Z,3.13
2023-04-02T14:52:31.959Z,2.10
2023-04-02T14:53:54.417Z,1.90
2023-04-02T14:55:03.747Z,3.13
2023-04-02T14:56:10.852Z,3.97
2023-04-02T14:57:19.160Z,2.00
2023-04-02T14:58:29.077Z,2.47
2023-04-02T14:59:53.506Z,2.87
2023-04-02T15:01:03.385Z,3.37
2023-04-02T15:02:19.197Z,2.57
2023-04-02T15:03:37.743Z,2.30
2023-04-02T15:04:54.325Z,1.90
2023-04-02T15:06:04.058Z,3.13
2023-04-02T15:07:19.237Z,1.83
2023-04-02T15:08:33.443Z,2.10
2023-04-02T15:09:45.336Z,2.50
2023-04-02T15:11:08.541Z,2.90
2023-04-02T15:12:20.607Z,2.70
2023-04-02T15:13:33.548Z,1.83
2023-04-02T15:14:44.221Z,1.73
2023-04-02T15:15:52.904Z,2.10
2023-04-02T15:16:55.314Z,2.50
2023-04-02T15:17:59.030Z,4.47
2023-04-02T15:19:03.007Z,2.27
2023-04-02T15:20:16.699Z,1.87
2023-04-02T15:21:19.808Z,2.70
2023-04-02T15:22:48.393Z,3.47
2023-04-02T15:24:02.404Z,2.40
2023-04-02T15:25:13.498Z,3.40
2023-04-02T15:26:24.691Z,2.07
2023-04-02T15:27:56.279Z,1.40
2023-04-02T15:29:25.919Z,2.37
2023-04-02T15:30:36.298Z,1.50
2023-04-02T15:31:44.735Z,2.73
2023-04-02T15:32:47.468Z,2.43
2023-04-02T15:34:06.609Z,2.43
2023-04-02T15:35:46.568Z,2.63
2023-04-02T15:36:59.308Z,2.80
2023-04-02T15:38:26.745Z,3.10
2023-04-02T15:39:37.146Z,1.97
2023-04-02T15:40:57.736Z,2.13
2023-04-02T15:42:08.741Z,1.77
2023-04-02T15:43:44.097Z,1.40
2023-04-02T15:45:02.315Z,1.60
2023-04-02T15:46:19.171Z,1.93
2023-04-02T15:47:36.951Z,1.77
2023-04-02T15:49:10.114Z,1.60